createdAt,value
2022-11-14T00:00:34.000Z,102949.69
2022-11-14T00:03:02.365Z,103010.47
2022-11-14T00:05:29.229Z,103024.13
2022-11-14T00:07:55.736Z,102987.41
2022-11-14T00:10:22.302Z,103029.44
2022-11-14T00:12:48.693Z,103046.22
2022-11-14T00:15:15.555Z,103019.41
2022-11-14T00:17:42.043Z,103085.94
2022-11-14T00:20:10.848Z,103112.34
2022-11-14T00:22:37.318Z,103064.50
2022-11-14T00:25:04.799Z,103139.56
2022-11-14T00:27:31.266Z,103141.03
2022-11-14T00:29:57.911Z,103158.53
2022-11-14T00:32:24.337Z,103116.31
2022-11-14T00:34:50.742Z,103178.25
2022-11-14T00:37:17.404Z,103183.72
2022-11-14T00:39:43.847Z,103186.50
2022-11-14T00:42:10.260Z,103139.78
2022-11-14T00:44:36.655Z,103202.88
2022-11-14T00:47:03.119Z,103203.06
2022-11-14T00:49:29.544Z,103228.81
2022-11-14T00:51:55.952Z,103231.22
2022-11-14T00:54:22.343Z,103213.00
2022-11-14T00:56:48.745Z,103155.06
2022-11-14T00:59:15.210Z,103212.19
2022-11-14T01:01:41.619Z,103200.19
2022-11-14T01:04:08.042Z,103223.34
2022-11-14T01:06:34.558Z,103158.31
2022-11-14T01:09:01.006Z,103226.47
2022-11-14T01:11:27.482Z,103232.59
2022-11-14T01:13:54.005Z,103225.44
2022-11-14T01:16:20.505Z,103225.25
2022-11-14T01:18:47.238Z,103203.03
2022-11-14T01:21:14.774Z,103203.84
2022-11-14T01:23:41.261Z,103206.81
2022-11-14T01:26:11.955Z,103206.09
2022-11-14T01:28:39.301Z,103223.06
2022-11-14T01:31:21.368Z,103153.66
2022-11-14T01:33:52.651Z,103217.91
2022-11-14T01:36:19.809Z,103167.22
2022-11-14T01:38:46.541Z,103224.41
2022-11-14T01:41:15.797Z,103196.59
2022-11-14T01:43:42.761Z,103228.56
2022-11-14T01:46:24.228Z,103216.78
2022-11-14T01:49:03.827Z,103148.19
2022-11-14T01:51:34.439Z,103182.41
2022-11-14T01:54:05.846Z,103248.41
2022-11-14T01:56:43.215Z,103200.38
2022-11-14T01:59:17.429Z,103296.66
2022-11-14T02:01:49.378Z,103318.16
2022-11-14T02:04:33.183Z,103322.28
2022-11-14T02:07:04.625Z,103276.28
2022-11-14T02:09:35.735Z,103345.28
2022-11-14T02:12:04.697Z,103319.06
2022-11-14T02:14:33.252Z,103317.66
2022-11-14T02:17:22.801Z,103320.03
2022-11-14T02:19:55.009Z,103254.00
2022-11-14T02:22:21.595Z,103323.25
2022-11-14T02:24:47.995Z,103215.47
2022-11-14T02:27:16.286Z,103306.06
2022-11-14T02:29:43.086Z,103298.72
2022-11-14T02:32:10.832Z,103244.00
2022-11-14T02:34:38.041Z,103290.94
2022-11-14T02:37:04.605Z,103203.91
2022-11-14T02:39:31.002Z,103207.13
2022-11-14T02:41:57.434Z,103301.50
2022-11-14T02:44:23.935Z,103292.34
2022-11-14T02:46:50.363Z,103279.59
2022-11-14T02:49:16.756Z,103269.25
2022-11-14T02:51:43.197Z,103227.09
2022-11-14T02:54:09.610Z,103254.88
2022-11-14T02:56:36.056Z,103255.69
2022-11-14T02:59:02.478Z,103247.22
2022-11-14T03:01:29.183Z,103257.41
2022-11-14T03:03:55.721Z,103226.03
2022-11-14T03:06:22.191Z,103244.72
2022-11-14T03:08:48.569Z,103230.91
2022-11-14T03:11:15.005Z,103212.72
2022-11-14T03:13:41.451Z,103221.81
2022-11-14T03:16:10.473Z,103203.16
2022-11-14T03:18:36.911Z,103156.59
2022-11-14T03:21:11.603Z,103218.47
2022-11-14T03:23:38.059Z,103193.75
2022-11-14T03:26:07.322Z,103202.47
2022-11-14T03:28:33.785Z,103169.31
2022-11-14T03:31:00.298Z,103119.25
2022-11-14T03:33:26.696Z,103155.88
2022-11-14T03:35:53.401Z,103155.78
2022-11-14T03:38:20.400Z,103177.50
2022-11-14T03:40:46.856Z,103181.53
2022-11-14T03:43:13.352Z,103184.59
2022-11-14T03:45:39.742Z,103153.69
2022-11-14T03:48:06.820Z,103112.19
2022-11-14T03:50:33.421Z,103086.28
2022-11-14T03:52:59.868Z,103174.81
2022-11-14T03:55:26.447Z,103086.81
2022-11-14T03:57:52.874Z,103142.72
2022-11-14T04:00:20.298Z,103128.00
2022-11-14T04:02:46.801Z,103167.22
2022-11-14T04:05:14.202Z,103095.00
2022-11-14T04:07:40.696Z,103163.38
2022-11-14T04:10:07.605Z,103088.31
2022-11-14T04:12:33.954Z,103151.06
2022-11-14T04:15:01.518Z,103161.81
2022-11-14T04:17:28.029Z,103167.41
2022-11-14T04:19:54.379Z,103180.13
2022-11-14T04:22:20.833Z,103129.13
2022-11-14T04:24:47.221Z,103151.06
2022-11-14T04:27:13.662Z,103156.34
2022-11-14T04:29:40.127Z,103119.53
2022-11-14T04:32:06.505Z,103122.41
2022-11-14T04:34:32.901Z,103053.81
2022-11-14T04:36:59.271Z,103142.50
2022-11-14T04:39:25.651Z,103126.31
2022-11-14T04:41:52.045Z,103126.25
2022-11-14T04:44:18.452Z,103116.66
2022-11-14T04:46:44.915Z,103128.50
2022-11-14T04:49:11.260Z,103140.88
2022-11-14T04:51:37.681Z,103094.81
2022-11-14T04:54:04.155Z,103147.94
2022-11-14T04:56:30.658Z,103154.59
2022-11-14T04:58:57.034Z,103136.16
2022-11-14T05:01:23.470Z,103124.00
2022-11-14T05:03:49.972Z,103139.28
2022-11-14T05:06:16.458Z,103135.13
2022-11-14T05:08:42.868Z,103031.06
2022-11-14T05:11:15.017Z,103114.44
2022-11-14T05:13:42.023Z,103050.19
2022-11-14T05:16:08.840Z,103097.03
2022-11-14T05:18:35.304Z,103084.53
2022-11-14T05:21:01.847Z,103102.00
2022-11-14T05:23:28.565Z,103100.66
2022-11-14T05:26:08.465Z,103115.63
2022-11-14T05:28:34.872Z,103086.63
2022-11-14T05:31:06.196Z,103092.09
2022-11-14T05:33:33.964Z,103065.78
2022-11-14T05:36:05.977Z,103051.34
2022-11-14T05:38:33.034Z,103065.78
2022-11-14T05:40:59.968Z,103062.00
2022-11-14T05:43:29.384Z,103089.91
2022-11-14T05:45:59.993Z,103057.53
2022-11-14T05:48:26.775Z,103122.16
2022-11-14T05:50:58.116Z,103064.53
2022-11-14T05:53:25.492Z,103040.41
2022-11-14T05:55:51.885Z,103097.34
2022-11-14T05:58:18.773Z,103098.22
2022-11-14T06:00:50.928Z,103069.59
2022-11-14T06:03:20.465Z,103034.25
2022-11-14T06:05:46.806Z,103096.53
2022-11-14T06:08:13.231Z,103107.78
2022-11-14T06:10:39.597Z,103072.91
2022-11-14T06:13:06.024Z,103084.03
2022-11-14T06:15:32.470Z,103102.72
2022-11-14T06:17:58.882Z,103046.47
2022-11-14T06:20:25.403Z,103103.47
2022-11-14T06:22:54.391Z,103057.91
2022-11-14T06:25:21.009Z,103142.13
2022-11-14T06:27:47.383Z,103113.78
2022-11-14T06:30:13.917Z,103055.22
2022-11-14T06:32:40.321Z,103127.84
2022-11-14T06:35:06.972Z,103134.19
2022-11-14T06:37:36.177Z,103072.59
2022-11-14T06:40:02.665Z,103133.56
2022-11-14T06:42:29.135Z,103133.94
2022-11-14T06:44:55.543Z,103139.16
2022-11-14T06:47:21.942Z,103124.88
2022-11-14T06:49:48.331Z,103110.81
2022-11-14T06:52:14.729Z,103103.97
2022-11-14T06:54:41.129Z,103106.31
2022-11-14T06:57:07.530Z,103115.69
2022-11-14T06:59:33.904Z,103098.97
2022-11-14T07:02:00.353Z,102895.56
2022-11-14T07:04:27.201Z,103119.66
2022-11-14T07:06:53.647Z,103130.06
2022-11-14T07:09:20.048Z,103068.53
2022-11-14T07:11:46.470Z,103060.88
2022-11-14T07:14:13.040Z,103144.13
2022-11-14T07:16:39.466Z,103137.88
2022-11-14T07:19:07.543Z,103119.38
2022-11-14T07:21:34.479Z,103123.44
2022-11-14T07:24:01.055Z,103109.88
2022-11-14T07:26:27.532Z,103099.50
2022-11-14T07:28:59.210Z,103108.91
2022-11-14T07:31:28.461Z,103108.97
2022-11-14T07:33:54.972Z,103074.53
2022-11-14T07:36:21.354Z,103081.91
2022-11-14T07:38:47.715Z,103080.63
2022-11-14T07:41:16.146Z,103042.34
2022-11-14T07:43:42.635Z,102998.63
2022-11-14T07:46:14.764Z,103103.38
2022-11-14T07:48:41.730Z,103008.94
2022-11-14T07:51:13.967Z,103080.97
2022-11-14T07:53:40.356Z,103092.94
2022-11-14T07:56:10.406Z,103063.44
2022-11-14T07:58:41.052Z,103007.53
2022-11-14T08:01:10.141Z,103054.44
2022-11-14T08:03:39.747Z,103012.38
2022-11-14T08:06:11.803Z,102992.53
2022-11-14T08:08:38.420Z,103061.84
2022-11-14T08:11:05.306Z,103042.44
2022-11-14T08:13:33.349Z,103074.47
2022-11-14T08:16:09.084Z,102996.63
2022-11-14T08:18:38.633Z,103014.63
2022-11-14T08:21:05.495Z,103020.13
2022-11-14T08:23:31.957Z,103071.47
2022-11-14T08:25:59.170Z,103102.88
2022-11-14T08:28:25.555Z,103053.19
2022-11-14T08:30:51.932Z,103109.75
2022-11-14T08:33:18.335Z,103080.53
2022-11-14T08:35:44.765Z,103078.66
2022-11-14T08:38:11.178Z,103062.41
2022-11-14T08:40:37.688Z,103064.69
2022-11-14T08:43:04.086Z,103157.88
2022-11-14T08:45:30.526Z,103134.78
2022-11-14T08:47:57.006Z,103205.03
2022-11-14T08:50:23.818Z,103196.97
2022-11-14T08:52:52.999Z,103230.50
2022-11-14T08:55:20.452Z,103245.19
2022-11-14T08:57:49.787Z,103196.63
2022-11-14T09:00:17.148Z,103285.31
2022-11-14T09:02:43.722Z,103277.16
2022-11-14T09:05:10.568Z,103301.84
2022-11-14T09:07:37.203Z,103281.97
2022-11-14T09:10:04.848Z,103273.78
2022-11-14T09:12:31.366Z,103244.09
2022-11-14T09:14:57.891Z,103208.47
2022-11-14T09:17:24.329Z,103086.53
2022-11-14T09:19:50.709Z,103117.91
2022-11-14T09:22:17.194Z,103062.06
2022-11-14T09:24:44.802Z,102947.88
2022-11-14T09:27:11.275Z,102944.25
2022-11-14T09:29:37.714Z,102909.53
2022-11-14T09:32:04.305Z,102780.50
2022-11-14T09:34:30.725Z,102799.59
2022-11-14T09:36:57.116Z,102784.84
2022-11-14T09:39:23.487Z,102733.03
2022-11-14T09:42:20.989Z,102722.25
2022-11-14T09:45:02.964Z,102619.34
2022-11-14T09:47:38.458Z,102665.78
2022-11-14T09:50:20.588Z,102555.41
2022-11-14T09:52:54.063Z,102571.03
2022-11-14T09:55:23.854Z,102523.88
2022-11-14T09:57:50.255Z,102509.97
2022-11-14T10:00:20.565Z,102512.78
2022-11-14T10:02:52.463Z,102455.22
2022-11-14T10:05:35.142Z,102462.34
2022-11-14T10:08:10.541Z,102475.38
2022-11-14T10:10:54.593Z,102467.25
2022-11-14T10:13:30.092Z,102489.56
2022-11-14T10:16:15.055Z,102466.94
2022-11-14T10:19:15.168Z,102374.72
2022-11-14T10:22:14.107Z,102420.03
2022-11-14T10:24:49.528Z,102375.97
2022-11-14T10:27:38.701Z,102364.38
2022-11-14T10:30:16.838Z,102356.69
2022-11-14T10:33:24.950Z,102371.50
2022-11-14T10:36:11.927Z,102323.56
2022-11-14T10:38:45.500Z,102277.16
2022-11-14T10:41:28.425Z,102291.25
2022-11-14T10:43:59.389Z,102183.22
2022-11-14T10:46:31.718Z,102220.63
2022-11-14T10:49:00.491Z,102150.13
2022-11-14T10:51:41.217Z,102208.28
2022-11-14T10:54:10.413Z,102194.13
2022-11-14T10:56:51.380Z,102130.97
2022-11-14T10:59:18.313Z,102152.44
2022-11-14T11:01:53.795Z,102175.97
2022-11-14T11:04:26.137Z,102166.47
2022-11-14T11:07:12.881Z,102172.84
2022-11-14T11:09:45.037Z,102143.00
2022-11-14T11:12:18.999Z,102069.28
2022-11-14T11:14:47.340Z,102062.88
2022-11-14T11:17:19.881Z,102067.66
2022-11-14T11:19:47.415Z,102069.56
2022-11-14T11:22:36.226Z,102134.06
2022-11-14T11:25:22.559Z,102081.00
2022-11-14T11:28:14.857Z,102072.41
2022-11-14T11:30:55.443Z,102085.00
2022-11-14T11:33:21.807Z,102153.47
2022-11-14T11:35:50.128Z,102154.75
2022-11-14T11:38:18.972Z,102090.53
2022-11-14T11:40:48.819Z,102160.69
2022-11-14T11:43:39.326Z,102168.16
2022-11-14T11:46:13.623Z,102161.78
2022-11-14T11:48:41.061Z,102153.72
2022-11-14T11:51:16.341Z,102094.53
2022-11-14T11:53:50.757Z,102167.97
2022-11-14T11:56:25.660Z,102160.59
2022-11-14T11:58:58.741Z,102101.41
2022-11-14T12:01:25.256Z,102149.53
2022-11-14T12:03:53.158Z,102135.50
2022-11-14T12:06:26.024Z,102123.63
2022-11-14T12:09:20.562Z,102121.53
2022-11-14T12:12:01.382Z,102078.53
2022-11-14T12:14:48.980Z,102142.22
2022-11-14T12:17:39.914Z,102142.00
2022-11-14T12:20:19.210Z,102130.75
2022-11-14T12:23:05.699Z,102120.56
2022-11-14T12:26:09.379Z,102143.53
2022-11-14T12:28:47.821Z,102142.44
2022-11-14T12:31:16.219Z,102123.94
2022-11-14T12:33:53.883Z,102209.41
2022-11-14T12:36:29.967Z,102127.84
2022-11-14T12:38:57.688Z,102204.78
2022-11-14T12:41:28.219Z,102189.50
2022-11-14T12:44:17.374Z,102188.88
2022-11-14T12:47:14.136Z,102192.72
2022-11-14T12:49:52.721Z,102186.47
2022-11-14T12:52:40.991Z,102166.31
2022-11-14T12:55:25.867Z,102171.56
2022-11-14T12:58:02.654Z,102167.78
2022-11-14T13:00:29.487Z,102204.63
2022-11-14T13:03:28.039Z,102192.72
2022-11-14T13:05:59.556Z,102149.09
2022-11-14T13:08:41.008Z,102194.75
2022-11-14T13:11:32.469Z,102196.13
2022-11-14T13:14:02.374Z,102164.09
2022-11-14T13:16:32.558Z,102168.38
2022-11-14T13:19:13.793Z,102169.06
2022-11-14T13:22:12.185Z,102205.00
2022-11-14T13:25:00.312Z,102224.19
2022-11-14T13:28:00.382Z,102224.56
2022-11-14T13:30:19.712Z,102226.91
2022-11-14T13:32:46.049Z,102214.06
2022-11-14T13:35:18.213Z,102208.06
2022-11-14T13:38:10.882Z,102190.09
2022-11-14T13:40:58.620Z,102174.16
2022-11-14T13:43:38.874Z,102166.63
2022-11-14T13:46:05.295Z,102159.94
2022-11-14T13:48:53.142Z,102149.03
2022-11-14T13:51:42.351Z,102129.38
2022-11-14T13:54:17.647Z,102135.84
2022-11-14T13:57:06.093Z,102172.00
2022-11-14T13:59:38.195Z,102151.66
2022-11-14T14:02:10.412Z,102195.66
2022-11-14T14:04:56.202Z,102195.34
2022-11-14T14:07:34.848Z,102185.41
2022-11-14T14:10:30.360Z,102179.69
2022-11-14T14:13:07.423Z,102142.69
2022-11-14T14:15:41.208Z,102162.06
2022-11-14T14:18:35.836Z,102143.66
2022-11-14T14:21:17.207Z,102135.69
2022-11-14T14:24:09.732Z,102138.09
2022-11-14T14:26:48.394Z,102143.31
2022-11-14T14:29:25.242Z,102140.19
2022-11-14T14:31:51.639Z,102142.03
2022-11-14T14:34:22.214Z,102136.00
2022-11-14T14:36:52.084Z,102130.97
2022-11-14T14:39:21.330Z,102067.91
2022-11-14T14:41:49.608Z,102045.75
2022-11-14T14:44:24.149Z,102098.38
2022-11-14T14:46:51.486Z,102101.63
2022-11-14T14:49:21.936Z,102097.88
2022-11-14T14:51:48.520Z,102094.16
2022-11-14T14:54:26.946Z,102006.00
2022-11-14T14:56:59.842Z,102072.16
2022-11-14T14:59:29.012Z,102010.25
2022-11-14T15:01:56.783Z,102053.09
2022-11-14T15:04:29.940Z,102005.63
2022-11-14T15:06:56.655Z,101953.56
2022-11-14T15:09:26.067Z,101946.38
2022-11-14T15:12:00.721Z,101932.72
2022-11-14T15:14:32.927Z,101997.16
2022-11-14T15:17:00.399Z,101988.88
2022-11-14T15:19:41.957Z,101973.34
2022-11-14T15:22:17.543Z,101958.72
2022-11-14T15:24:44.406Z,101886.06
2022-11-14T15:27:19.435Z,101914.72
2022-11-14T15:29:52.997Z,101941.88
2022-11-14T15:32:22.678Z,101926.38
2022-11-14T15:35:38.200Z,101925.06
2022-11-14T15:38:43.591Z,101916.72
2022-11-14T15:41:20.619Z,101890.19
2022-11-14T15:43:52.395Z,101898.31
2022-11-14T15:46:33.900Z,101904.66
2022-11-14T15:49:10.981Z,101830.03
2022-11-14T15:51:39.666Z,101886.06
2022-11-14T15:54:18.689Z,101831.06
2022-11-14T15:56:45.333Z,101877.75
2022-11-14T15:59:11.732Z,101800.47
2022-11-14T16:01:38.270Z,101776.69
2022-11-14T16:04:04.940Z,101843.31
2022-11-14T16:06:32.893Z,101749.38
2022-11-14T16:08:59.277Z,101788.19
2022-11-14T16:11:25.657Z,101807.88
2022-11-14T16:13:52.063Z,101724.81
2022-11-14T16:16:18.433Z,101788.00
2022-11-14T16:18:44.852Z,101773.31
2022-11-14T16:21:16.305Z,101778.06
2022-11-14T16:23:42.674Z,101733.06
2022-11-14T16:26:09.064Z,101764.09
2022-11-14T16:28:35.495Z,101755.41
2022-11-14T16:31:01.961Z,101734.44
2022-11-14T16:33:28.675Z,101716.69
2022-11-14T16:35:55.422Z,101686.72
2022-11-14T16:38:21.850Z,101693.50
2022-11-14T16:40:48.225Z,101658.63
2022-11-14T16:43:14.901Z,101682.91
2022-11-14T16:45:41.385Z,101610.91
2022-11-14T16:48:07.831Z,101670.44
2022-11-14T16:50:34.258Z,101586.72
2022-11-14T16:53:00.725Z,101594.66
2022-11-14T16:55:27.165Z,101682.03
2022-11-14T16:57:53.776Z,101668.66
2022-11-14T17:00:22.967Z,101702.31
2022-11-14T17:02:49.389Z,101697.19
2022-11-14T17:05:15.931Z,101719.66
2022-11-14T17:07:42.401Z,101684.84
2022-11-14T17:10:09.258Z,101751.19
2022-11-14T17:12:35.692Z,101778.31
2022-11-14T17:15:02.148Z,101771.63
2022-11-14T17:17:28.546Z,101777.53
2022-11-14T17:19:54.958Z,101792.88
2022-11-14T17:22:21.470Z,101805.41
2022-11-14T17:24:47.876Z,101818.59
2022-11-14T17:27:14.277Z,101834.03
2022-11-14T17:29:40.692Z,101792.63
2022-11-14T17:32:07.133Z,101878.03
2022-11-14T17:34:33.633Z,101833.50
2022-11-14T17:37:00.186Z,101899.72
2022-11-14T17:39:26.615Z,101912.38
2022-11-14T17:41:53.027Z,101919.63
2022-11-14T17:44:19.531Z,101939.50
2022-11-14T17:46:46.662Z,101957.63
2022-11-14T17:49:13.065Z,101906.72
2022-11-14T17:51:39.478Z,101974.69
2022-11-14T17:54:06.009Z,101976.97
2022-11-14T17:56:32.441Z,101967.28
2022-11-14T17:58:58.858Z,101964.03
2022-11-14T18:01:25.380Z,101983.25
2022-11-14T18:03:51.872Z,101953.59
2022-11-14T18:06:20.479Z,102027.13
2022-11-14T18:08:47.669Z,101981.78
2022-11-14T18:11:16.720Z,102045.78
2022-11-14T18:13:43.648Z,102046.63
2022-11-14T18:16:19.178Z,102064.03
2022-11-14T18:18:45.866Z,102044.59
2022-11-14T18:21:15.488Z,101976.47
2022-11-14T18:23:42.088Z,102067.34
2022-11-14T18:26:13.132Z,102085.03
2022-11-14T18:28:40.183Z,102051.66
2022-11-14T18:31:07.111Z,102039.28
2022-11-14T18:33:34.244Z,102020.88
2022-11-14T18:36:01.887Z,102100.97
2022-11-14T18:38:32.818Z,102087.38
2022-11-14T18:41:01.207Z,102132.72
2022-11-14T18:43:28.006Z,102061.34
2022-11-14T18:45:55.064Z,102116.25
2022-11-14T18:48:21.638Z,102055.19
2022-11-14T18:50:48.060Z,102120.88
2022-11-14T18:53:14.523Z,102152.38
2022-11-14T18:55:41.035Z,102126.06
2022-11-14T18:58:07.577Z,102136.28
2022-11-14T19:00:34.049Z,102157.00
2022-11-14T19:03:05.766Z,102144.75
2022-11-14T19:05:35.903Z,102088.31
2022-11-14T19:08:02.327Z,102130.31
2022-11-14T19:10:28.723Z,102182.22
2022-11-14T19:12:55.134Z,102182.09
2022-11-14T19:15:21.565Z,102192.03
2022-11-14T19:17:48.048Z,102127.28
2022-11-14T19:20:14.849Z,102114.63
2022-11-14T19:22:41.434Z,102209.25
2022-11-14T19:25:08.390Z,102220.00
2022-11-14T19:27:35.015Z,102211.16
2022-11-14T19:30:01.473Z,102235.84
2022-11-14T19:32:27.904Z,102229.84
2022-11-14T19:34:54.299Z,102253.56
2022-11-14T19:37:20.735Z,102258.88
2022-11-14T19:39:47.210Z,102271.00
2022-11-14T19:42:13.656Z,102279.75
2022-11-14T19:44:40.049Z,102272.25
2022-11-14T19:47:06.515Z,102255.47
2022-11-14T19:49:32.911Z,102309.91
2022-11-14T19:51:59.487Z,102268.44
2022-11-14T19:54:25.875Z,102213.44
2022-11-14T19:56:52.267Z,102297.50
2022-11-14T19:59:23.995Z,102212.88
2022-11-14T20:01:50.972Z,102313.19
2022-11-14T20:04:17.518Z,102285.19
2022-11-14T20:06:44.084Z,102327.56
2022-11-14T20:09:11.114Z,102333.56
2022-11-14T20:11:37.902Z,102334.91
2022-11-14T20:14:05.059Z,102263.94
2022-11-14T20:16:34.089Z,102266.91
2022-11-14T20:19:00.984Z,102328.06
2022-11-14T20:21:30.225Z,102339.97
2022-11-14T20:23:56.709Z,102342.28
2022-11-14T20:26:24.045Z,102303.78
2022-11-14T20:28:51.060Z,102357.84
2022-11-14T20:31:23.281Z,102364.13
2022-11-14T20:33:51.155Z,102345.97
2022-11-14T20:36:20.408Z,102366.44
2022-11-14T20:38:47.501Z,102354.69
2022-11-14T20:41:14.394Z,102363.94
2022-11-14T20:43:41.306Z,102374.38
2022-11-14T20:46:12.790Z,102394.16
2022-11-14T20:48:39.877Z,102360.81
2022-11-14T20:51:11.903Z,102384.34
2022-11-14T20:53:38.811Z,102359.88
2022-11-14T20:56:05.511Z,102385.44
2022-11-14T20:58:32.223Z,102402.19
2022-11-14T21:00:58.726Z,102394.03
2022-11-14T21:03:25.445Z,102394.03
2022-11-14T21:05:52.233Z,102419.81
2022-11-14T21:08:19.408Z,102386.50
2022-11-14T21:10:48.623Z,102439.78
2022-11-14T21:13:18.283Z,102348.91
2022-11-14T21:15:44.765Z,102421.63
2022-11-14T21:18:11.184Z,102331.97
2022-11-14T21:20:37.595Z,102437.44
2022-11-14T21:23:03.979Z,102420.50
2022-11-14T21:25:30.492Z,102388.50
2022-11-14T21:27:56.918Z,102454.22
2022-11-14T21:30:23.419Z,102400.00
2022-11-14T21:32:53.289Z,102483.06
2022-11-14T21:35:22.865Z,102494.28
2022-11-14T21:37:49.274Z,102492.91
2022-11-14T21:40:16.036Z,102509.81
2022-11-14T21:42:42.429Z,102497.56
2022-11-14T21:45:09.528Z,102534.00
2022-11-14T21:47:35.927Z,102591.81
2022-11-14T21:50:02.350Z,102585.94
2022-11-14T21:52:28.797Z,102628.78
2022-11-14T21:54:55.194Z,102576.34
2022-11-14T21:57:21.604Z,102648.84
2022-11-14T21:59:48.024Z,102611.69
2022-11-14T22:02:14.566Z,102637.41
2022-11-14T22:04:41.003Z,102705.28
2022-11-14T22:07:08.429Z,102712.28
2022-11-14T22:09:35.240Z,102793.50
2022-11-14T22:12:02.003Z,102770.84
2022-11-14T22:14:28.467Z,102876.53
2022-11-14T22:16:54.982Z,102950.78
2022-11-14T22:19:21.549Z,102958.41
2022-11-14T22:21:47.940Z,103027.00
2022-11-14T22:24:14.320Z,103093.63
2022-11-14T22:26:40.709Z,103138.34
2022-11-14T22:29:08.269Z,103109.19
2022-11-14T22:31:34.900Z,103246.34
2022-11-14T22:34:01.901Z,103265.78
2022-11-14T22:36:28.348Z,103385.44
2022-11-14T22:38:56.252Z,103400.72
2022-11-14T22:41:33.042Z,103497.50
2022-11-14T22:44:00.584Z,103554.69
2022-11-14T22:46:27.560Z,103615.97
2022-11-14T22:48:54.664Z,103638.16
2022-11-14T22:51:23.696Z,103725.47
2022-11-14T22:53:54.906Z,103718.84
2022-11-14T22:56:23.893Z,103841.91
2022-11-14T22:58:50.531Z,103984.38
2022-11-14T23:01:24.276Z,104127.53
2022-11-14T23:03:55.950Z,104147.81
2022-11-14T23:06:23.359Z,104300.00
2022-11-14T23:08:50.312Z,104363.03
2022-11-14T23:11:19.732Z,104350.16
2022-11-14T23:13:47.856Z,104345.81
2022-11-14T23:16:17.100Z,104398.75
2022-11-14T23:18:43.990Z,104453.31
2022-11-14T23:21:14.018Z,104490.28
2022-11-14T23:23:40.853Z,104576.31
2022-11-14T23:26:15.544Z,104632.41
2022-11-14T23:28:42.457Z,104616.13
2022-11-14T23:31:10.358Z,104641.69
2022-11-14T23:33:36.775Z,104704.66
2022-11-14T23:36:03.779Z,104802.41
2022-11-14T23:38:30.298Z,104801.88
2022-11-14T23:40:58.881Z,104871.34
2022-11-14T23:43:25.671Z,104879.31
2022-11-14T23:45:52.158Z,105083.19
2022-11-14T23:48:20.486Z,105121.16
2022-11-14T23:50:55.160Z,105132.56
2022-11-14T23:53:22.315Z,105104.16
2022-11-14T23:55:56.946Z,105106.50
2022-11-14T23:58:24.431Z,105128.44
